Time;durP1;ratioP1;P1;durP2;ratioP2;P2;SDS_P1;SDS_P2;PMS_P1;PMS_P2;Temp;Humidity;BMP_temperature;BMP_pressure;BME280_temperature;BME280_humidity;BME280_pressure;Samples;Min_cycle;Max_cycle;Signal;HPM_P1;HPM_P2
2022/04/17 00:00:12;;;;;;;2.00;0.95;;;;;;;10.76;68.00;94471.81;5031289;28;20285;-74
2022/04/17 00:02:40;;;;;;;1.02;0.82;;;;;;;10.66;68.22;94468.38;5031093;28;20196;-73
2022/04/17 00:05:08;;;;;;;8.65;1.50;;;;;;;10.59;68.32;94468.13;5019635;28;20560;-78
2022/04/17 00:07:35;;;;;;;1.88;1.75;;;;;;;10.55;68.51;94463.69;5031698;28;20197;-75
2022/04/17 00:10:04;;;;;;;1.00;1.00;;;;;;;10.49;68.89;94463.09;5030865;28;20200;-75
2022/04/17 00:12:30;;;;;;;2.05;1.30;;;;;;;10.57;68.92;94464.94;5040074;28;20227;-74
2022/04/17 00:15:00;;;;;;;1.95;1.30;;;;;;;10.52;68.83;94467.84;5037360;28;20196;-74
2022/04/17 00:17:27;;;;;;;1.02;0.80;;;;;;;10.63;68.91;94463.63;5030430;28;20224;-74
2022/04/17 00:19:54;;;;;;;1.25;1.05;;;;;;;10.65;68.86;94455.19;5030523;28;20204;-75
2022/04/17 00:22:23;;;;;;;2.22;1.20;;;;;;;10.54;69.06;94454.75;5030740;28;20193;-76
2022/04/17 00:24:49;;;;;;;2.03;1.15;;;;;;;10.58;68.92;94450.28;5030395;28;20607;-74
2022/04/17 00:27:16;;;;;;;1.27;1.13;;;;;;;10.47;69.66;94449.09;5040886;28;20277;-73
2022/04/17 00:29:44;;;;;;;2.30;1.40;;;;;;;10.41;70.00;94445.00;5030427;28;20196;-74
2022/04/17 00:32:12;;;;;;;1.40;1.17;;;;;;;10.42;69.83;94435.75;5030516;28;20708;-74
2022/04/17 00:34:39;;;;;;;0.63;0.63;;;;;;;10.41;70.14;94431.47;5034249;28;20211;-73
2022/04/17 00:37:07;;;;;;;1.10;0.85;;;;;;;10.34;70.69;94433.91;5045570;28;20196;-74
2022/04/17 00:39:33;;;;;;;1.38;1.02;;;;;;;10.25;71.53;94436.66;5035797;28;20258;-75
2022/04/17 00:42:04;;;;;;;3.72;1.30;;;;;;;10.23;71.70;94440.84;5039797;28;20204;-72
2022/04/17 00:44:32;;;;;;;0.82;0.82;;;;;;;10.15;72.04;94438.94;5034455;28;20235;-75
2022/04/17 00:46:59;;;;;;;2.35;1.05;;;;;;;10.08;72.26;94441.41;5046833;28;20298;-74
2022/04/17 00:49:27;;;;;;;2.67;1.55;;;;;;;10.03;72.55;94433.47;5034213;28;20736;-74
2022/04/17 00:51:54;;;;;;;1.95;1.80;;;;;;;9.96;72.91;94434.78;5033425;28;20246;-75
2022/04/17 00:54:23;;;;;;;4.72;1.15;;;;;;;9.93;73.01;94424.63;5022658;28;20288;-73
2022/04/17 00:56:51;;;;;;;3.08;1.48;;;;;;;9.93;72.67;94424.63;5033961;28;20196;-74
2022/04/17 00:59:18;;;;;;;2.63;1.17;;;;;;;9.93;72.59;94430.03;5037655;28;20212;-74
2022/04/17 01:01:45;;;;;;;0.88;0.80;;;;;;;9.90;72.44;94430.69;5038893;28;20203;-74
2022/04/17 01:04:12;;;;;;;1.20;1.10;;;;;;;9.78;72.78;94424.38;5033959;28;20671;-76
2022/04/17 01:06:41;;;;;;;1.30;1.08;;;;;;;9.74;72.68;94421.53;5033723;28;20208;-73
2022/04/17 01:09:08;;;;;;;1.23;1.15;;;;;;;9.82;72.41;94428.03;5033840;28;20291;-73
2022/04/17 01:11:39;;;;;;;4.13;0.80;;;;;;;9.81;72.29;94427.25;5033812;28;20644;-74
2022/04/17 01:14:07;;;;;;;0.85;0.85;;;;;;;9.71;71.98;94416.78;5034039;28;20259;-74
2022/04/17 01:16:36;;;;;;;1.52;1.35;;;;;;;9.72;72.39;94418.38;5033960;28;20221;-74
2022/04/17 01:19:11;;;;;;;1.00;1.00;;;;;;;9.68;72.21;94412.03;5033899;28;20287;-74
2022/04/17 01:21:40;;;;;;;1.17;1.08;;;;;;;9.66;72.13;94408.88;5033232;28;20674;-74
2022/04/17 01:27:00;;;;;;;1.27;1.17;;;;;;;9.62;72.02;94413.34;5026334;28;20211;-74
2022/04/17 01:29:29;;;;;;;1.00;0.93;;;;;;;9.59;71.85;94408.56;5033231;28;20314;-73
2022/04/17 01:31:55;;;;;;;0.68;0.68;;;;;;;9.65;71.81;94420.00;5033407;28;20274;-73
2022/04/17 01:34:23;;;;;;;0.80;0.80;;;;;;;9.63;71.55;94417.63;5033656;28;20204;-72
2022/04/17 01:36:52;;;;;;;0.80;0.80;;;;;;;9.62;71.62;94416.03;5033263;28;20287;-74
2022/04/17 01:39:20;;;;;;;1.17;0.93;;;;;;;9.70;71.61;94417.94;5033356;28;20614;-74
2022/04/17 01:41:48;;;;;;;2.70;1.02;;;;;;;9.71;71.67;94415.97;5033429;28;20203;-76
2022/04/17 01:44:17;;;;;;;2.33;0.70;;;;;;;9.72;71.36;94418.38;5041388;28;20224;-75
2022/04/17 01:46:44;;;;;;;0.85;0.63;;;;;;;9.63;71.64;94420.34;5032678;28;20232;-73
2022/04/17 01:49:12;;;;;;;1.27;1.05;;;;;;;9.59;71.94;94413.97;5032983;28;20691;-75
2022/04/17 01:51:40;;;;;;;0.80;0.80;;;;;;;9.59;72.03;94419.41;5032637;28;20220;-75
2022/04/17 01:54:11;;;;;;;1.65;0.95;;;;;;;9.61;72.12;94411.75;5032814;28;20588;-75
2022/04/17 01:56:39;;;;;;;0.80;0.80;;;;;;;9.59;71.95;94413.97;5028952;28;20198;-75
2022/04/17 01:59:07;;;;;;;0.80;0.80;;;;;;;9.68;71.87;94406.63;5026531;28;20207;-75
2022/04/17 02:01:35;;;;;;;0.82;0.82;;;;;;;9.70;71.86;94409.81;5030667;28;20216;-73
2022/04/17 02:04:02;;;;;;;3.47;0.90;;;;;;;9.71;71.89;94416.78;5033091;28;20311;-73
2022/04/17 02:06:29;;;;;;;0.85;0.75;;;;;;;9.60;72.17;94410.97;5033027;28;20200;-76
2022/04/17 02:08:56;;;;;;;1.65;1.30;;;;;;;9.60;72.37;94418.28;5033012;28;20208;-73
2022/04/17 02:11:26;;;;;;;0.57;0.57;;;;;;;9.73;71.99;94409.13;5032532;28;20291;-74
2022/04/17 02:13:54;;;;;;;0.55;0.55;;;;;;;9.62;72.33;94402.53;5032941;28;20243;-74
2022/04/17 02:16:22;;;;;;;0.50;0.50;;;;;;;9.53;72.81;94394.47;5032385;28;20227;-74
2022/04/17 02:18:50;;;;;;;0.80;0.73;;;;;;;9.53;73.00;94399.88;5032388;28;20204;-74
2022/04/17 02:21:17;;;;;;;0.52;0.52;;;;;;;9.57;72.95;94391.88;5032407;28;20204;-75
2022/04/17 02:23:46;;;;;;;1.63;1.13;;;;;;;9.48;73.59;94380.31;5023471;28;20253;-75
2022/04/17 02:26:16;;;;;;;1.88;1.13;;;;;;;9.47;73.83;94378.75;5037844;28;20200;-74
2022/04/17 02:28:44;;;;;;;3.08;1.50;;;;;;;9.34;74.05;94382.47;5031998;28;20702;-78
2022/04/17 02:31:12;;;;;;;1.50;1.40;;;;;;;9.38;74.39;94380.72;5032422;28;20281;-75
2022/04/17 02:33:39;;;;;;;2.65;1.33;;;;;;;9.37;74.74;94379.13;5032267;28;20246;-74
2022/04/17 02:36:06;;;;;;;1.08;0.98;;;;;;;9.35;75.13;94381.34;5032491;28;20200;-74
2022/04/17 02:38:34;;;;;;;2.05;0.50;;;;;;;9.42;74.73;94377.03;5032776;28;20219;-74
2022/04/17 02:41:01;;;;;;;0.68;0.65;;;;;;;9.38;75.12;94376.09;5032464;28;20208;-74
2022/04/17 02:43:28;;;;;;;1.70;0.70;;;;;;;9.36;75.20;94372.13;5031777;28;20259;-75
2022/04/17 02:45:56;;;;;;;1.30;1.10;;;;;;;9.41;75.39;94374.66;5044457;28;20196;-74
2022/04/17 02:48:23;;;;;;;3.28;1.60;;;;;;;9.32;75.40;94373.88;5032308;28;20203;-74
2022/04/17 02:50:50;;;;;;;3.83;1.48;;;;;;;9.42;75.55;94376.25;5032348;28;20211;-74
2022/04/17 02:53:17;;;;;;;1.00;0.95;;;;;;;9.47;75.23;94373.34;5031033;28;20224;-74
2022/04/17 02:55:45;;;;;;;1.27;1.08;;;;;;;9.41;75.21;94371.97;5011857;28;20274;-76
2022/04/17 02:58:11;;;;;;;1.23;1.15;;;;;;;9.41;75.31;94374.66;5023120;28;20694;-75
2022/04/17 03:05:36;;;;;;;0.88;0.80;;;;;;;9.33;75.49;94367.38;5030972;28;20213;-73
2022/04/17 03:06:14;;;;;;;2.03;1.00;;;;;;;9.32;75.90;94376.59;5030992;28;20203;-75
2022/04/17 03:08:43;;;;;;;0.60;0.60;;;;;;;9.38;76.02;94369.91;5031207;28;20654;-75
2022/04/17 03:11:11;;;;;;;1.30;0.65;;;;;;;9.19;76.18;94373.78;5031702;28;20281;-74
2022/04/17 03:13:38;;;;;;;1.48;1.15;;;;;;;9.23;76.55;94368.53;5031146;28;20324;-73
2022/04/17 03:16:05;;;;;;;0.95;0.88;;;;;;;9.29;76.48;94356.44;5031653;28;20487;-74
2022/04/17 03:18:34;;;;;;;1.48;0.80;;;;;;;9.24;76.18;94370.91;5030973;28;20544;-72
2022/04/17 03:21:01;;;;;;;1.33;0.65;;;;;;;9.30;75.92;94373.41;5030661;28;20682;-75
2022/04/17 03:23:28;;;;;;;1.52;1.23;;;;;;;9.13;76.65;94375.09;5032041;28;20226;-73
2022/04/17 03:25:55;;;;;;;0.70;0.70;;;;;;;9.04;77.25;94376.22;5038231;28;20557;-74
2022/04/17 03:28:22;;;;;;;0.52;0.52;;;;;;;9.10;77.07;94373.03;5031631;28;20192;-74
2022/04/17 03:30:49;;;;;;;2.40;1.38;;;;;;;9.09;77.14;94376.84;5029811;28;20670;-75
2022/04/17 03:33:16;;;;;;;0.88;0.88;;;;;;;9.06;76.79;94372.09;5031191;28;20251;-73
2022/04/17 03:35:45;;;;;;;0.40;0.40;;;;;;;9.00;77.21;94380.72;5024219;28;20196;-74
2022/04/17 03:38:11;;;;;;;1.55;0.68;;;;;;;9.01;77.57;94377.69;5018751;28;20205;-75
2022/04/17 03:40:39;;;;;;;1.13;0.73;;;;;;;8.99;77.54;94374.53;5031361;28;20219;-75
2022/04/17 03:43:07;;;;;;;0.70;0.70;;;;;;;9.04;77.42;94385.13;5030649;28;20232;-74
2022/04/17 03:45:34;;;;;;;2.25;0.55;;;;;;;9.01;77.95;94383.09;5042616;28;20208;-74
2022/04/17 03:48:01;;;;;;;4.47;1.33;;;;;;;9.05;77.65;94381.31;5031303;28;20540;-74
2022/04/17 03:50:28;;;;;;;0.80;0.73;;;;;;;9.04;78.29;94387.84;5030768;28;20215;-75
2022/04/17 03:52:57;;;;;;;0.68;0.68;;;;;;;8.98;79.02;94399.16;5031073;28;20236;-74
2022/04/17 03:55:25;;;;;;;1.02;0.90;;;;;;;9.06;79.45;94391.00;5030599;28;20243;-75
2022/04/17 03:57:52;;;;;;;0.82;0.70;;;;;;;8.96;79.78;94394.06;5031240;28;20220;-75
2022/04/17 04:00:18;;;;;;;2.03;1.20;;;;;;;8.75;80.80;94396.66;5031131;28;20283;-75
2022/04/17 04:02:51;;;;;;;1.17;1.08;;;;;;;8.75;81.19;94393.94;5030567;28;20728;-78
2022/04/17 04:05:19;;;;;;;0.98;0.98;;;;;;;8.71;81.96;94394.94;5031113;28;20199;-79
2022/04/17 04:07:46;;;;;;;1.33;1.00;;;;;;;8.70;82.71;94391.44;5020766;28;20699;-78
2022/04/17 04:10:15;;;;;;;1.58;0.65;;;;;;;8.73;83.08;94387.31;5031104;28;20200;-79
2022/04/17 04:12:42;;;;;;;1.10;0.65;;;;;;;8.50;83.26;94375.91;5031377;28;20224;-77
2022/04/17 04:15:09;;;;;;;0.73;0.73;;;;;;;8.37;84.12;94379.56;5030734;28;20630;-78
2022/04/17 04:17:36;;;;;;;2.55;0.65;;;;;;;8.34;84.45;94389.09;5030636;28;20197;-76
2022/04/17 04:20:04;;;;;;;1.23;1.13;;;;;;;8.34;85.29;94397.19;5030697;28;20204;-77
2022/04/17 04:22:31;;;;;;;1.38;1.27;;;;;;;8.39;85.22;94394.34;5029211;28;20220;-79
2022/04/17 04:24:57;;;;;;;2.90;1.92;;;;;;;8.48;85.41;94381.63;5026099;28;20221;-79
2022/04/17 04:30:10;;;;;;;2.22;1.30;;;;;;;8.52;85.68;94396.06;5027836;28;20208;-77
2022/04/17 04:32:37;;;;;;;1.52;1.13;;;;;;;8.57;84.73;94394.31;5029104;28;20864;-77
2022/04/17 04:35:05;;;;;;;1.38;1.27;;;;;;;8.42;85.97;94399.09;5028628;28;20203;-78
2022/04/17 04:37:32;;;;;;;1.70;1.35;;;;;;;8.34;85.90;94397.19;5030560;28;20699;-76
2022/04/17 04:39:59;;;;;;;0.75;0.65;;;;;;;8.51;86.07;94385.59;5030454;28;20212;-78
2022/04/17 04:42:28;;;;;;;0.63;0.63;;;;;;;8.59;86.33;94392.91;5027407;28;20268;-76
2022/04/17 04:47:35;;;;;;;0.70;0.70;;;;;;;8.28;87.31;94387.66;5023473;28;20200;-75
2022/04/17 04:50:02;;;;;;;2.28;1.45;;;;;;;8.32;87.77;94388.66;5028290;28;20208;-75
2022/04/17 04:52:29;;;;;;;1.92;0.77;;;;;;;8.26;88.03;94394.47;5028521;28;20224;-75
2022/04/17 04:54:56;;;;;;;0.90;0.90;;;;;;;8.48;88.45;94392.41;5028600;28;20682;-75
2022/04/17 04:57:22;;;;;;;1.00;0.85;;;;;;;8.56;87.89;94385.44;5025588;28;20299;-75
2022/04/17 04:59:51;;;;;;;1.45;1.35;;;;;;;8.55;87.60;94381.16;5030020;28;20197;-75
2022/04/17 05:02:18;;;;;;;1.90;0.73;;;;;;;8.59;88.10;94375.91;5025597;28;20205;-76
2022/04/17 05:04:45;;;;;;;1.63;1.38;;;;;;;8.58;88.30;94374.31;5027763;28;20197;-75
2022/04/17 05:07:11;;;;;;;2.13;0.77;;;;;;;8.50;88.09;94381.31;5028567;28;20285;-75
2022/04/17 05:09:38;;;;;;;1.58;1.48;;;;;;;8.42;88.26;94376.72;5028346;28;20215;-76
2022/04/17 05:12:06;;;;;;;1.95;1.38;;;;;;;8.35;88.20;94381.78;5028160;28;20817;-75
2022/04/17 05:14:33;;;;;;;1.40;1.30;;;;;;;8.34;88.54;94386.41;5026202;28;20239;-75
2022/04/17 05:17:01;;;;;;;0.98;0.98;;;;;;;8.45;89.04;94376.88;5028907;28;20204;-75
2022/04/17 05:19:28;;;;;;;2.80;2.25;;;;;;;8.39;88.48;94380.84;5028711;28;20284;-75
2022/04/17 05:21:58;;;;;;;3.53;1.73;;;;;;;8.53;88.72;94384.16;5033613;28;20754;-76
2022/04/17 05:24:26;;;;;;;0.98;0.98;;;;;;;8.50;87.85;94384.78;5032355;28;20200;-75
2022/04/17 05:26:53;;;;;;;2.28;1.50;;;;;;;8.57;87.49;94388.94;5029306;28;20201;-75
2022/04/17 05:29:19;;;;;;;0.73;0.73;;;;;;;8.68;87.60;94384.78;5028719;28;20196;-75
2022/04/17 05:31:47;;;;;;;1.20;1.10;;;;;;;8.68;88.03;94384.78;5031193;28;20204;-75
2022/04/17 05:34:16;;;;;;;1.00;1.00;;;;;;;8.76;86.87;94376.63;5023802;28;20236;-75
2022/04/17 05:36:43;;;;;;;1.42;1.30;;;;;;;8.85;87.19;94379.34;5027199;28;20209;-75
2022/04/17 05:39:10;;;;;;;0.73;0.70;;;;;;;8.91;86.85;94372.63;5030091;28;20277;-75
2022/04/17 05:41:38;;;;;;;3.35;2.53;;;;;;;8.94;86.84;94376.59;5029803;28;20225;-75
2022/04/17 05:44:07;;;;;;;3.00;1.50;;;;;;;9.07;86.72;94376.38;5030127;28;20700;-75
2022/04/17 05:46:36;;;;;;;2.22;1.65;;;;;;;9.02;87.00;94375.78;5027424;28;20307;-75
2022/04/17 05:49:04;;;;;;;1.30;1.15;;;;;;;9.06;86.54;94374.78;5031471;28;20200;-73
2022/04/17 05:51:33;;;;;;;0.50;0.50;;;;;;;9.21;86.02;94371.56;5031048;28;20208;-74
2022/04/17 05:54:01;;;;;;;2.58;1.75;;;;;;;9.32;85.84;94376.59;5028002;28;20651;-75
2022/04/17 05:56:29;;;;;;;2.30;1.55;;;;;;;9.45;85.42;94380.97;5031066;28;20203;-75
2022/04/17 05:58:56;;;;;;;6.15;2.22;;;;;;;9.60;84.60;94366.91;5031573;28;20271;-75
2022/04/17 06:01:23;;;;;;;1.95;1.40;;;;;;;9.34;83.99;94366.25;5028204;28;20204;-73
2022/04/17 06:03:50;;;;;;;0.63;0.63;;;;;;;9.22;84.80;94365.03;5031315;28;20286;-74
2022/04/17 06:06:18;;;;;;;2.65;1.08;;;;;;;9.00;85.80;94370.72;5030261;28;20674;-74
2022/04/17 06:08:46;;;;;;;1.50;1.38;;;;;;;9.00;86.53;94365.31;5030938;28;20192;-75
2022/04/17 06:11:14;;;;;;;7.00;3.45;;;;;;;8.82;86.66;94369.16;5030602;28;20583;-76
2022/04/17 06:13:41;;;;;;;7.22;5.72;;;;;;;8.92;87.63;94368.81;5032652;28;20286;-74
2022/04/17 06:16:08;;;;;;;5.38;3.78;;;;;;;8.92;87.51;94358.00;5031761;28;20204;-75
2022/04/17 06:18:35;;;;;;;4.05;2.45;;;;;;;9.00;87.10;94348.28;5031602;28;20196;-73
2022/04/17 06:21:01;;;;;;;1.83;1.55;;;;;;;9.14;86.26;94355.06;5031881;28;20204;-75
2022/04/17 06:23:28;;;;;;;2.97;1.95;;;;;;;9.06;86.44;94355.88;5033712;28;20212;-75
2022/04/17 06:25:57;;;;;;;2.00;1.48;;;;;;;9.00;86.48;94354.50;5034105;28;20196;-76
2022/04/17 06:28:23;;;;;;;3.53;2.03;;;;;;;8.87;86.90;94360.91;5031010;28;20200;-73
2022/04/17 06:30:50;;;;;;;1.92;1.45;;;;;;;9.07;86.54;94360.19;5029968;28;20676;-74
2022/04/17 06:33:17;;;;;;;4.03;2.60;;;;;;;9.03;86.45;94355.72;5027906;28;20758;-75
2022/04/17 06:35:44;;;;;;;1.40;1.30;;;;;;;8.93;86.64;94359.59;5024207;28;20200;-77
2022/04/17 06:38:11;;;;;;;1.52;1.17;;;;;;;9.11;86.37;94363.81;5024378;28;20196;-76
2022/04/17 06:40:38;;;;;;;3.47;0.80;;;;;;;9.22;86.08;94356.13;5030675;28;20774;-75
2022/04/17 06:43:08;;;;;;;0.93;0.73;;;;;;;9.23;86.06;94355.03;5030655;28;20228;-77
2022/04/17 06:45:36;;;;;;;3.28;2.17;;;;;;;9.06;85.01;94361.28;5030922;28;20224;-74
2022/04/17 06:48:16;;;;;;;1.25;1.13;;;;;;;8.92;84.80;94363.41;5031221;28;20259;-76
2022/04/17 06:50:44;;;;;;;2.35;1.70;;;;;;;8.72;85.84;94364.91;5031050;28;20254;-73
2022/04/17 06:53:10;;;;;;;1.60;1.25;;;;;;;8.79;86.22;94370.59;5030912;28;20217;-72
2022/04/17 06:55:38;;;;;;;2.58;1.45;;;;;;;8.81;86.81;94367.56;5032168;28;20258;-74
2022/04/17 06:58:07;;;;;;;1.70;1.02;;;;;;;8.68;86.94;94361.25;5030932;28;20537;-75
2022/04/17 07:00:37;;;;;;;3.58;1.63;;;;;;;8.70;87.64;94366.34;5030473;28;20258;-75
2022/04/17 07:03:04;;;;;;;1.17;1.02;;;;;;;8.63;86.65;94361.44;5025570;28;20204;-73
2022/04/17 07:05:31;;;;;;;1.13;1.08;;;;;;;8.31;87.88;94365.44;5030782;28;20599;-74
2022/04/17 07:07:59;;;;;;;0.60;0.60;;;;;;;8.50;88.29;94368.59;5029820;28;20197;-73
2022/04/17 07:10:27;;;;;;;0.93;0.60;;;;;;;8.67;88.20;94366.97;5030079;28;20372;-72
2022/04/17 07:12:54;;;;;;;1.25;1.15;;;;;;;8.54;87.73;94379.56;5031092;28;20606;-73
2022/04/17 07:15:24;;;;;;;1.70;0.73;;;;;;;8.75;87.26;94368.84;5031080;28;20551;-73
2022/04/17 07:17:51;;;;;;;1.48;0.82;;;;;;;8.57;87.30;94378.13;5032071;28;20296;-74
2022/04/17 07:20:19;;;;;;;1.35;1.15;;;;;;;8.78;87.21;94371.72;5044664;28;20212;-74
2022/04/17 07:22:47;;;;;;;0.93;0.93;;;;;;;8.88;87.30;94374.06;5030945;28;20547;-74
2022/04/17 07:25:14;;;;;;;1.05;0.95;;;;;;;8.93;87.36;94375.78;5040205;28;20208;-75
2022/04/17 07:27:43;;;;;;;1.00;0.50;;;;;;;8.89;86.91;94374.84;5031573;28;20200;-74
2022/04/17 07:30:12;;;;;;;0.65;0.65;;;;;;;8.80;86.41;94371.38;5019618;28;20208;-75
2022/04/17 07:32:41;;;;;;;0.30;0.30;;;;;;;8.75;86.69;94352.66;5026080;28;20750;-74
2022/04/17 07:35:09;;;;;;;1.08;0.93;;;;;;;8.94;86.15;94363.88;5021668;28;20286;-75
2022/04/17 07:37:36;;;;;;;1.05;0.82;;;;;;;9.00;86.85;94364.50;5028398;28;20208;-76
2022/04/17 07:40:08;;;;;;;1.35;0.82;;;;;;;9.16;85.32;94374.44;5028241;28;20231;-76
2022/04/17 07:42:35;;;;;;;0.30;0.30;;;;;;;9.11;85.47;94374.63;5029142;28;20755;-74
2022/04/17 07:45:02;;;;;;;1.25;1.15;;;;;;;9.08;85.86;94369.88;5048143;28;20207;-75
2022/04/17 07:47:30;;;;;;;0.22;0.22;;;;;;;8.91;85.85;94369.94;5041197;28;20211;-76
2022/04/17 07:49:59;;;;;;;0.45;0.35;;;;;;;9.03;86.56;94372.72;5047828;28;20509;-77
2022/04/17 07:52:26;;;;;;;2.60;1.17;;;;;;;8.87;86.50;94366.31;5030489;28;20231;-77
2022/04/17 07:54:53;;;;;;;0.90;0.50;;;;;;;9.13;86.63;94358.88;5035754;28;20706;-74
2022/04/17 07:57:20;;;;;;;1.20;0.93;;;;;;;9.29;85.32;94358.34;5031679;28;20317;-74
2022/04/17 07:59:50;;;;;;;0.65;0.65;;;;;;;9.48;85.08;94364.09;5038718;28;20679;-74
2022/04/17 08:02:27;;;;;;;2.17;1.15;;;;;;;9.67;84.46;94353.66;5024308;28;20192;-76
2022/04/17 08:04:54;;;;;;;0.43;0.43;;;;;;;9.30;84.91;94354.50;5026912;28;20204;-74
2022/04/17 08:07:22;;;;;;;0.98;0.77;;;;;;;9.04;85.91;94358.13;5009711;28;20275;-77
2022/04/17 08:09:49;;;;;;;1.75;0.85;;;;;;;9.19;86.31;94357.56;5022529;28;20208;-74
2022/04/17 08:12:16;;;;;;;1.05;0.95;;;;;;;9.17;85.89;94354.41;5042742;28;20196;-75
2022/04/17 08:14:43;;;;;;;1.95;1.27;;;;;;;9.37;85.56;94352.09;5030407;28;20224;-76
2022/04/17 08:17:09;;;;;;;2.50;0.95;;;;;;;9.42;86.04;94349.22;5031326;28;20262;-74
2022/04/17 08:19:36;;;;;;;0.60;0.52;;;;;;;9.51;83.71;94347.25;5026396;28;20196;-75
2022/04/17 08:22:03;;;;;;;1.00;1.00;;;;;;;9.75;84.17;94347.41;5017212;28;20223;-74
2022/04/17 08:24:32;;;;;;;2.42;1.25;;;;;;;10.11;83.82;94346.03;5043829;28;20235;-74
2022/04/17 08:26:59;;;;;;;1.08;0.98;;;;;;;10.05;83.41;94344.63;5029472;28;20208;-77
2022/04/17 08:29:26;;;;;;;1.15;1.05;;;;;;;9.76;82.19;94348.19;5030577;28;20610;-72
2022/04/17 08:31:53;;;;;;;0.60;0.60;;;;;;;9.96;83.23;94345.50;5049855;28;20207;-74
2022/04/17 08:34:21;;;;;;;1.05;0.95;;;;;;;10.23;82.57;94351.53;5049101;28;20235;-75
2022/04/17 08:36:48;;;;;;;4.15;2.38;;;;;;;10.43;83.09;94350.69;5029262;28;20635;-73
2022/04/17 08:39:15;;;;;;;2.47;1.17;;;;;;;10.08;83.27;94344.78;5029440;28;20212;-75
2022/04/17 08:41:44;;;;;;;0.95;0.93;;;;;;;10.20;83.57;94346.78;5029213;28;20344;-75
2022/04/17 08:44:11;;;;;;;1.33;0.93;;;;;;;10.11;82.93;94343.31;5029536;28;20208;-76
2022/04/17 08:46:38;;;;;;;1.00;0.90;;;;;;;10.14;82.58;94348.03;5028500;28;20569;-76
2022/04/17 08:49:07;;;;;;;1.00;0.60;;;;;;;10.52;81.68;94343.25;5025126;28;20254;-76
2022/04/17 08:51:34;;;;;;;2.67;1.55;;;;;;;10.59;81.45;94343.53;5027260;28;20289;-77
2022/04/17 08:54:03;;;;;;;0.90;0.90;;;;;;;10.58;80.94;94347.34;5028319;28;20228;-77
2022/04/17 08:56:30;;;;;;;2.28;1.02;;;;;;;10.79;80.50;94341.09;5031950;28;20311;-77
2022/04/17 08:59:00;;;;;;;1.75;0.95;;;;;;;10.95;79.94;94345.50;5033086;28;20201;-77
2022/04/17 09:01:27;;;;;;;0.93;0.88;;;;;;;10.87;78.86;94342.91;5033163;28;20242;-77
2022/04/17 09:03:54;;;;;;;1.25;1.08;;;;;;;10.97;78.49;94337.06;5032690;28;20209;-77
2022/04/17 09:06:22;;;;;;;1.38;1.10;;;;;;;10.91;77.77;94333.78;5033014;28;20211;-76
2022/04/17 09:09:01;;;;;;;1.75;0.82;;;;;;;10.80;77.25;94337.25;5032916;28;20200;-76
2022/04/17 09:11:29;;;;;;;4.55;1.10;;;;;;;10.44;81.29;94330.63;5032470;28;20262;-75
2022/04/17 09:13:58;;;;;;;1.02;0.75;;;;;;;10.48;81.53;94336.94;5032717;28;20308;-76
2022/04/17 09:16:30;;;;;;;4.85;3.00;;;;;;;10.72;79.17;94332.72;5032871;28;20204;-75
2022/04/17 09:18:57;;;;;;;6.97;2.63;;;;;;;10.94;79.31;94326.88;5032510;28;20291;-75
2022/04/17 09:21:32;;;;;;;2.55;2.25;;;;;;;10.95;79.34;94329.25;5032629;28;20201;-76
2022/04/17 09:24:17;;;;;;;1.00;0.82;;;;;;;11.08;79.68;94321.94;5037800;28;20211;-77
2022/04/17 09:26:52;;;;;;;1.67;1.02;;;;;;;11.14;80.34;94312.47;5038823;28;20686;-76
2022/04/17 09:29:22;;;;;;;1.73;1.00;;;;;;;11.37;77.05;94308.16;5038058;28;20550;-77
2022/04/17 09:31:57;;;;;;;1.80;0.93;;;;;;;11.39;75.00;94299.69;5032050;28;20209;-77
2022/04/17 09:34:24;;;;;;;1.23;1.13;;;;;;;11.21;76.69;94304.53;5032283;28;20219;-77
2022/04/17 09:36:53;;;;;;;0.70;0.68;;;;;;;11.27;75.50;94297.78;5031938;28;20208;-76
2022/04/17 09:39:20;;;;;;;0.70;0.70;;;;;;;10.80;77.82;94291.19;5031627;28;20294;-76
2022/04/17 09:41:58;;;;;;;0.77;0.77;;;;;;;10.92;76.63;94285.81;5031534;28;20663;-75
2022/04/17 09:44:51;;;;;;;0.45;0.45;;;;;;;11.32;78.60;94286.69;5031036;28;20203;-76
2022/04/17 09:47:20;;;;;;;0.40;0.40;;;;;;;11.10;78.77;94287.16;5033724;28;20203;-76
2022/04/17 09:50:06;;;;;;;1.70;1.30;;;;;;;10.79;79.42;94281.50;5051875;28;20722;-76
2022/04/17 09:52:35;;;;;;;0.82;0.82;;;;;;;10.54;80.07;94286.84;5033707;28;20212;-77
2022/04/17 09:55:04;;;;;;;2.95;0.50;;;;;;;10.93;79.03;94287.38;5031645;28;20239;-77
2022/04/17 09:57:32;;;;;;;0.70;0.70;;;;;;;11.01;77.97;94286.47;5037244;28;20644;-76
2022/04/17 10:00:10;;;;;;;1.15;0.98;;;;;;;10.51;79.76;94287.53;5051381;28;20218;-77
2022/04/17 10:02:38;;;;;;;1.17;0.77;;;;;;;10.53;78.55;94282.56;5035513;28;20193;-77
2022/04/17 10:05:07;;;;;;;1.05;0.73;;;;;;;10.42;80.21;94283.31;5025383;28;20303;-76
2022/04/17 10:07:38;;;;;;;0.30;0.30;;;;;;;10.32;79.30;94279.94;5031038;28;20571;-77
2022/04/17 10:10:05;;;;;;;0.88;0.50;;;;;;;10.48;78.22;94276.59;5031394;28;20606;-77
2022/04/17 10:12:34;;;;;;;0.57;0.45;;;;;;;10.26;77.84;94275.03;5030870;28;20212;-74
2022/04/17 10:15:06;;;;;;;1.13;0.70;;;;;;;10.06;79.06;94265.03;5029725;28;20594;-77
2022/04/17 10:17:34;;;;;;;0.40;0.40;;;;;;;9.93;82.58;94265.00;5030518;28;20222;-77
2022/04/17 10:20:06;;;;;;;2.78;1.83;;;;;;;10.26;82.41;94265.00;5029558;28;20197;-79
2022/04/17 10:22:34;;;;;;;0.65;0.65;;;;;;;10.71;80.54;94258.00;5029781;28;20591;-80
2022/04/17 10:25:02;;;;;;;0.32;0.32;;;;;;;10.61;78.46;94254.59;5036926;28;20203;-77
2022/04/17 10:27:37;;;;;;;1.15;1.00;;;;;;;10.76;80.45;94255.06;5050472;28;20219;-76
2022/04/17 10:30:10;;;;;;;0.38;0.38;;;;;;;10.41;79.44;94260.09;5040840;28;20196;-76
2022/04/17 10:33:10;;;;;;;0.98;0.85;;;;;;;10.69;78.84;94259.13;5029131;28;20201;-75
2022/04/17 10:35:50;;;;;;;0.57;0.57;;;;;;;9.92;79.38;94271.53;5028286;28;20291;-77
2022/04/17 10:38:44;;;;;;;1.95;1.15;;;;;;;9.85;79.66;94263.13;5027519;28;20200;-76
2022/04/17 10:41:13;;;;;;;0.57;0.40;;;;;;;9.72;81.60;94260.72;5029425;28;20218;-76
2022/04/17 10:43:58;;;;;;;1.45;0.55;;;;;;;9.61;81.50;94261.13;5029811;28;20323;-76
2022/04/17 10:46:27;;;;;;;0.40;0.32;;;;;;;9.37;79.94;94249.38;5029335;28;20227;-77
2022/04/17 10:48:56;;;;;;;0.30;0.30;;;;;;;9.43;82.37;94248.06;5030101;28;20196;-76
2022/04/17 10:51:24;;;;;;;0.30;0.30;;;;;;;9.47;81.66;94254.38;5029984;28;20273;-78
2022/04/17 10:53:53;;;;;;;0.20;0.20;;;;;;;9.25;79.39;94253.59;5029963;28;20236;-73
2022/04/17 10:56:21;;;;;;;0.20;0.20;;;;;;;8.97;80.33;94255.19;5030058;28;20281;-77
2022/04/17 10:58:52;;;;;;;0.20;0.20;;;;;;;8.86;79.80;94251.28;5030856;28;20314;-77
2022/04/17 11:01:52;;;;;;;0.28;0.28;;;;;;;8.73;79.13;94253.09;5027108;28;20200;-76
2022/04/17 11:04:21;;;;;;;0.32;0.32;;;;;;;8.77;80.17;94234.31;5022908;28;20243;-75
2022/04/17 11:06:53;;;;;;;0.40;0.40;;;;;;;8.65;79.21;94239.59;5031900;28;20211;-75
2022/04/17 11:09:22;;;;;;;0.30;0.30;;;;;;;8.92;81.92;94244.56;5026941;28;20279;-77
2022/04/17 11:11:50;;;;;;;0.10;0.10;;;;;;;8.98;80.69;94237.88;5029440;28;20236;-77
2022/04/17 11:14:19;;;;;;;0.30;0.30;;;;;;;9.18;80.45;94236.28;5029065;28;20196;-75
2022/04/17 11:16:49;;;;;;;0.35;0.35;;;;;;;9.13;79.74;94240.00;5030337;28;20301;-77
2022/04/17 11:19:19;;;;;;;0.20;0.20;;;;;;;9.06;80.05;94250.53;5030028;28;20226;-77
2022/04/17 11:21:47;;;;;;;0.88;0.82;;;;;;;9.29;83.29;94247.53;5030185;28;20683;-76
2022/04/17 11:24:14;;;;;;;1.05;0.95;;;;;;;9.49;84.90;94241.34;5037743;28;20206;-76
2022/04/17 11:27:12;;;;;;;0.77;0.77;;;;;;;9.64;85.64;94243.44;5031727;28;20318;-77
2022/04/17 11:29:42;;;;;;;2.15;1.30;;;;;;;9.49;85.17;94255.63;5029877;28;20204;-77
2022/04/17 11:32:48;;;;;;;0.75;0.75;;;;;;;8.81;85.35;94259.56;5030445;28;20201;-74
2022/04/17 11:35:18;;;;;;;1.35;1.15;;;;;;;8.71;86.24;94249.13;5019137;28;20282;-77
2022/04/17 11:38:03;;;;;;;2.72;2.05;;;;;;;8.61;85.46;94254.91;5030159;28;20199;-76
2022/04/17 11:40:32;;;;;;;0.95;0.80;;;;;;;8.81;85.85;94259.56;5030307;28;20240;-74
2022/04/17 11:43:06;;;;;;;1.77;1.67;;;;;;;8.87;86.56;94252.88;5029629;28;20232;-77
2022/04/17 11:45:35;;;;;;;2.20;2.00;;;;;;;8.89;86.90;94245.19;5029866;28;20192;-76
2022/04/17 11:48:08;;;;;;;1.95;1.75;;;;;;;9.01;85.67;94242.63;5029341;28;20207;-77
2022/04/17 11:50:37;;;;;;;3.60;2.22;;;;;;;8.88;86.39;94240.94;5030533;28;20235;-77
2022/04/17 11:53:05;;;;;;;2.10;1.85;;;;;;;8.81;85.99;94243.34;5030236;28;20204;-76
2022/04/17 11:55:33;;;;;;;2.22;1.77;;;;;;;8.77;86.27;94250.50;5029846;28;20239;-77
2022/04/17 11:58:02;;;;;;;2.80;1.83;;;;;;;8.90;86.12;94246.78;5030184;28;20204;-77